sensor_id;sensor_type;location;lat;lon;timestamp;P1;durP1;ratioP1;P2;durP2;ratioP2
75005;SDS011;63553;51.814;4.600;2023-02-11T00:01:38;1.77;;;1.67;;
75005;SDS011;63553;51.814;4.600;2023-02-11T00:04:05;1.70;;;1.60;;
75005;SDS011;63553;51.814;4.600;2023-02-11T00:06:32;2.85;;;1.80;;
75005;SDS011;63553;51.814;4.600;2023-02-11T00:08:59;1.60;;;1.50;;
75005;SDS011;63553;51.814;4.600;2023-02-11T00:11:25;2.33;;;1.98;;
75005;SDS011;63553;51.814;4.600;2023-02-11T00:13:54;2.47;;;1.90;;
75005;SDS011;63553;51.814;4.600;2023-02-11T00:16:24;3.30;;;1.95;;
75005;SDS011;63553;51.814;4.600;2023-02-11T00:18:49;2.08;;;1.63;;
75005;SDS011;63553;51.814;4.600;2023-02-11T00:21:18;1.98;;;1.85;;
75005;SDS011;63553;51.814;4.600;2023-02-11T00:23:48;2.13;;;1.92;;
75005;SDS011;63553;51.814;4.600;2023-02-11T00:26:20;2.97;;;1.83;;
75005;SDS011;63553;51.814;4.600;2023-02-11T00:28:49;1.98;;;1.58;;
75005;SDS011;63553;51.814;4.600;2023-02-11T00:31:16;1.60;;;1.50;;
75005;SDS011;63553;51.814;4.600;2023-02-11T00:33:43;2.88;;;1.75;;
75005;SDS011;63553;51.814;4.600;2023-02-11T00:36:10;3.28;;;1.67;;
75005;SDS011;63553;51.814;4.600;2023-02-11T00:38:39;2.60;;;1.70;;
75005;SDS011;63553;51.814;4.600;2023-02-11T00:41:07;3.03;;;1.40;;
75005;SDS011;63553;51.814;4.600;2023-02-11T00:43:32;2.07;;;1.37;;
75005;SDS011;63553;51.814;4.600;2023-02-11T00:45:58;3.10;;;1.75;;
75005;SDS011;63553;51.814;4.600;2023-02-11T00:48:23;2.15;;;1.80;;
75005;SDS011;63553;51.814;4.600;2023-02-11T00:50:48;2.47;;;2.00;;
75005;SDS011;63553;51.814;4.600;2023-02-11T00:53:14;2.42;;;1.77;;
75005;SDS011;63553;51.814;4.600;2023-02-11T00:55:39;1.50;;;1.40;;
75005;SDS011;63553;51.814;4.600;2023-02-11T00:58:05;1.57;;;1.47;;
75005;SDS011;63553;51.814;4.600;2023-02-11T01:00:30;1.90;;;1.70;;
75005;SDS011;63553;51.814;4.600;2023-02-11T01:02:55;1.73;;;1.60;;
75005;SDS011;63553;51.814;4.600;2023-02-11T01:05:21;2.72;;;1.65;;
75005;SDS011;63553;51.814;4.600;2023-02-11T01:07:46;3.95;;;1.75;;
75005;SDS011;63553;51.814;4.600;2023-02-11T01:10:12;1.95;;;1.55;;
75005;SDS011;63553;51.814;4.600;2023-02-11T01:12:38;2.30;;;1.35;;
75005;SDS011;63553;51.814;4.600;2023-02-11T01:15:04;1.40;;;1.30;;
75005;SDS011;63553;51.814;4.600;2023-02-11T01:17:31;3.30;;;1.60;;
75005;SDS011;63553;51.814;4.600;2023-02-11T01:19:57;1.95;;;1.77;;
75005;SDS011;63553;51.814;4.600;2023-02-11T01:22:22;1.80;;;1.70;;
75005;SDS011;63553;51.814;4.600;2023-02-11T01:24:47;1.40;;;1.30;;
75005;SDS011;63553;51.814;4.600;2023-02-11T01:27:13;3.13;;;1.77;;
75005;SDS011;63553;51.814;4.600;2023-02-11T01:29:38;1.70;;;1.60;;
75005;SDS011;63553;51.814;4.600;2023-02-11T01:32:03;2.53;;;1.60;;
75005;SDS011;63553;51.814;4.600;2023-02-11T01:34:29;3.45;;;1.48;;
75005;SDS011;63553;51.814;4.600;2023-02-11T01:36:58;2.90;;;1.97;;
75005;SDS011;63553;51.814;4.600;2023-02-11T01:39:24;2.00;;;1.70;;
75005;SDS011;63553;51.814;4.600;2023-02-11T01:41:51;1.65;;;1.50;;
75005;SDS011;63553;51.814;4.600;2023-02-11T01:44:24;1.50;;;1.40;;
75005;SDS011;63553;51.814;4.600;2023-02-11T01:46:49;3.85;;;1.52;;
75005;SDS011;63553;51.814;4.600;2023-02-11T01:49:25;2.45;;;1.58;;
75005;SDS011;63553;51.814;4.600;2023-02-11T01:51:56;2.08;;;1.60;;
75005;SDS011;63553;51.814;4.600;2023-02-11T01:54:27;1.58;;;1.48;;
75005;SDS011;63553;51.814;4.600;2023-02-11T01:57:15;1.77;;;1.63;;
75005;SDS011;63553;51.814;4.600;2023-02-11T01:59:58;2.45;;;1.40;;
75005;SDS011;63553;51.814;4.600;2023-02-11T02:05:31;2.25;;;1.45;;
75005;SDS011;63553;51.814;4.600;2023-02-11T02:10:40;1.58;;;1.13;;
75005;SDS011;63553;51.814;4.600;2023-02-11T02:13:07;1.77;;;1.20;;
75005;SDS011;63553;51.814;4.600;2023-02-11T02:15:34;1.48;;;1.38;;
75005;SDS011;63553;51.814;4.600;2023-02-11T02:37:00;2.23;;;1.50;;
75005;SDS011;63553;51.814;4.600;2023-02-11T02:39:32;2.38;;;1.50;;
75005;SDS011;63553;51.814;4.600;2023-02-11T02:42:00;2.45;;;1.50;;
75005;SDS011;63553;51.814;4.600;2023-02-11T02:44:26;3.83;;;1.70;;
75005;SDS011;63553;51.814;4.600;2023-02-11T02:46:53;3.03;;;1.75;;
75005;SDS011;63553;51.814;4.600;2023-02-11T02:49:18;1.75;;;1.50;;
75005;SDS011;63553;51.814;4.600;2023-02-11T03:09:38;4.43;;;1.40;;
75005;SDS011;63553;51.814;4.600;2023-02-11T03:11:51;1.60;;;1.30;;
75005;SDS011;63553;51.814;4.600;2023-02-11T03:14:17;2.08;;;1.42;;
75005;SDS011;63553;51.814;4.600;2023-02-11T03:16:44;1.58;;;1.38;;
75005;SDS011;63553;51.814;4.600;2023-02-11T03:19:32;1.58;;;1.48;;
75005;SDS011;63553;51.814;4.600;2023-02-11T03:22:02;1.88;;;1.50;;
75005;SDS011;63553;51.814;4.600;2023-02-11T03:24:32;1.60;;;1.40;;
75005;SDS011;63553;51.814;4.600;2023-02-11T03:27:02;2.30;;;1.33;;
75005;SDS011;63553;51.814;4.600;2023-02-11T03:32:19;1.38;;;1.20;;
75005;SDS011;63553;51.814;4.600;2023-02-11T03:37:23;1.38;;;1.23;;
75005;SDS011;63553;51.814;4.600;2023-02-11T03:39:54;1.40;;;1.23;;
75005;SDS011;63553;51.814;4.600;2023-02-11T03:42:33;1.17;;;1.17;;
75005;SDS011;63553;51.814;4.600;2023-02-11T03:45:03;2.33;;;1.33;;
75005;SDS011;63553;51.814;4.600;2023-02-11T03:47:32;1.42;;;1.30;;
75005;SDS011;63553;51.814;4.600;2023-02-11T03:50:03;2.35;;;1.52;;
75005;SDS011;63553;51.814;4.600;2023-02-11T03:52:31;1.90;;;1.40;;
75005;SDS011;63553;51.814;4.600;2023-02-11T03:55:01;1.35;;;1.30;;
75005;SDS011;63553;51.814;4.600;2023-02-11T03:57:30;1.52;;;1.20;;
75005;SDS011;63553;51.814;4.600;2023-02-11T03:59:58;4.40;;;1.88;;
75005;SDS011;63553;51.814;4.600;2023-02-11T04:02:26;1.48;;;1.23;;
75005;SDS011;63553;51.814;4.600;2023-02-11T04:04:54;1.75;;;1.20;;
75005;SDS011;63553;51.814;4.600;2023-02-11T04:07:19;2.03;;;1.65;;
75005;SDS011;63553;51.814;4.600;2023-02-11T04:09:45;1.33;;;1.23;;
75005;SDS011;63553;51.814;4.600;2023-02-11T04:12:10;1.37;;;1.27;;
75005;SDS011;63553;51.814;4.600;2023-02-11T04:14:35;1.50;;;1.40;;
75005;SDS011;63553;51.814;4.600;2023-02-11T04:17:01;2.25;;;1.52;;
75005;SDS011;63553;51.814;4.600;2023-02-11T04:19:27;1.30;;;1.20;;
75005;SDS011;63553;51.814;4.600;2023-02-11T04:21:53;1.88;;;1.30;;
75005;SDS011;63553;51.814;4.600;2023-02-11T04:24:18;1.80;;;1.40;;
75005;SDS011;63553;51.814;4.600;2023-02-11T04:26:43;2.07;;;1.20;;
75005;SDS011;63553;51.814;4.600;2023-02-11T04:29:09;1.40;;;1.30;;
75005;SDS011;63553;51.814;4.600;2023-02-11T04:31:34;1.73;;;1.23;;
75005;SDS011;63553;51.814;4.600;2023-02-11T04:33:59;1.30;;;1.20;;
75005;SDS011;63553;51.814;4.600;2023-02-11T04:36:25;3.23;;;1.53;;
75005;SDS011;63553;51.814;4.600;2023-02-11T04:38:50;1.70;;;1.13;;
75005;SDS011;63553;51.814;4.600;2023-02-11T04:41:15;1.33;;;1.23;;
75005;SDS011;63553;51.814;4.600;2023-02-11T04:43:41;1.93;;;1.37;;
75005;SDS011;63553;51.814;4.600;2023-02-11T04:46:06;1.97;;;1.37;;
75005;SDS011;63553;51.814;4.600;2023-02-11T04:48:31;1.40;;;1.30;;
75005;SDS011;63553;51.814;4.600;2023-02-11T04:50:58;1.88;;;1.58;;
75005;SDS011;63553;51.814;4.600;2023-02-11T04:53:24;1.17;;;1.13;;
75005;SDS011;63553;51.814;4.600;2023-02-11T04:55:49;1.88;;;1.38;;
75005;SDS011;63553;51.814;4.600;2023-02-11T04:58:15;1.58;;;1.30;;
75005;SDS011;63553;51.814;4.600;2023-02-11T05:00:41;1.38;;;1.13;;
75005;SDS011;63553;51.814;4.600;2023-02-11T05:03:06;2.93;;;1.40;;
75005;SDS011;63553;51.814;4.600;2023-02-11T05:05:32;3.67;;;1.33;;
75005;SDS011;63553;51.814;4.600;2023-02-11T05:07:57;1.20;;;1.10;;
75005;SDS011;63553;51.814;4.600;2023-02-11T05:10:22;1.57;;;1.10;;
75005;SDS011;63553;51.814;4.600;2023-02-11T05:12:48;1.20;;;1.10;;
75005;SDS011;63553;51.814;4.600;2023-02-11T05:15:13;2.15;;;1.25;;
75005;SDS011;63553;51.814;4.600;2023-02-11T05:17:39;1.52;;;1.38;;
75005;SDS011;63553;51.814;4.600;2023-02-11T05:20:05;2.10;;;1.10;;
75005;SDS011;63553;51.814;4.600;2023-02-11T05:22:31;2.28;;;1.52;;
75005;SDS011;63553;51.814;4.600;2023-02-11T05:24:56;2.33;;;1.40;;
75005;SDS011;63553;51.814;4.600;2023-02-11T05:27:21;1.40;;;1.30;;
75005;SDS011;63553;51.814;4.600;2023-02-11T05:29:46;1.37;;;1.27;;
75005;SDS011;63553;51.814;4.600;2023-02-11T05:32:12;1.73;;;1.40;;
75005;SDS011;63553;51.814;4.600;2023-02-11T05:34:37;1.80;;;1.20;;
75005;SDS011;63553;51.814;4.600;2023-02-11T05:37:03;2.50;;;1.40;;
75005;SDS011;63553;51.814;4.600;2023-02-11T05:39:28;3.80;;;1.50;;
75005;SDS011;63553;51.814;4.600;2023-02-11T05:41:53;2.13;;;1.50;;
75005;SDS011;63553;51.814;4.600;2023-02-11T05:44:19;1.10;;;1.00;;
75005;SDS011;63553;51.814;4.600;2023-02-11T05:46:44;1.50;;;1.40;;
75005;SDS011;63553;51.814;4.600;2023-02-11T05:49:09;1.47;;;1.37;;
75005;SDS011;63553;51.814;4.600;2023-02-11T05:51:34;2.63;;;1.40;;
75005;SDS011;63553;51.814;4.600;2023-02-11T05:54:00;1.73;;;1.23;;
75005;SDS011;63553;51.814;4.600;2023-02-11T05:56:25;1.20;;;1.10;;
75005;SDS011;63553;51.814;4.600;2023-02-11T05:58:50;1.60;;;1.50;;
75005;SDS011;63553;51.814;4.600;2023-02-11T06:01:16;1.77;;;1.40;;
75005;SDS011;63553;51.814;4.600;2023-02-11T06:03:41;3.63;;;1.47;;
75005;SDS011;63553;51.814;4.600;2023-02-11T06:06:10;1.90;;;1.43;;
75005;SDS011;63553;51.814;4.600;2023-02-11T06:08:36;1.40;;;1.23;;
75005;SDS011;63553;51.814;4.600;2023-02-11T06:11:02;1.33;;;1.20;;
75005;SDS011;63553;51.814;4.600;2023-02-11T06:13:27;1.40;;;1.15;;
75005;SDS011;63553;51.814;4.600;2023-02-11T06:15:59;3.30;;;1.33;;
75005;SDS011;63553;51.814;4.600;2023-02-11T06:18:26;1.42;;;1.10;;
75005;SDS011;63553;51.814;4.600;2023-02-11T06:20:51;2.22;;;1.30;;
75005;SDS011;63553;51.814;4.600;2023-02-11T06:23:16;1.55;;;1.35;;
75005;SDS011;63553;51.814;4.600;2023-02-11T06:25:42;1.48;;;1.35;;
75005;SDS011;63553;51.814;4.600;2023-02-11T06:28:07;2.08;;;1.30;;
75005;SDS011;63553;51.814;4.600;2023-02-11T06:30:35;1.35;;;1.25;;
75005;SDS011;63553;51.814;4.600;2023-02-11T06:33:01;1.33;;;1.20;;
75005;SDS011;63553;51.814;4.600;2023-02-11T06:35:27;1.30;;;1.25;;
75005;SDS011;63553;51.814;4.600;2023-02-11T06:37:52;1.30;;;1.20;;
75005;SDS011;63553;51.814;4.600;2023-02-11T06:40:18;2.15;;;1.20;;
75005;SDS011;63553;51.814;4.600;2023-02-11T06:42:44;1.10;;;1.10;;
75005;SDS011;63553;51.814;4.600;2023-02-11T06:45:09;1.23;;;1.13;;
75005;SDS011;63553;51.814;4.600;2023-02-11T06:47:37;2.38;;;1.48;;
75005;SDS011;63553;51.814;4.600;2023-02-11T06:50:02;1.65;;;1.13;;
75005;SDS011;63553;51.814;4.600;2023-02-11T06:52:28;1.10;;;1.00;;
75005;SDS011;63553;51.814;4.600;2023-02-11T06:54:53;1.40;;;1.30;;
75005;SDS011;63553;51.814;4.600;2023-02-11T06:57:18;1.45;;;1.35;;
75005;SDS011;63553;51.814;4.600;2023-02-11T06:59:44;1.30;;;1.20;;
75005;SDS011;63553;51.814;4.600;2023-02-11T07:02:09;1.80;;;1.23;;
75005;SDS011;63553;51.814;4.600;2023-02-11T07:04:35;2.53;;;1.55;;
75005;SDS011;63553;51.814;4.600;2023-02-11T07:07:00;2.22;;;1.50;;
75005;SDS011;63553;51.814;4.600;2023-02-11T07:09:25;2.43;;;1.37;;
75005;SDS011;63553;51.814;4.600;2023-02-11T07:11:51;2.90;;;1.58;;
75005;SDS011;63553;51.814;4.600;2023-02-11T07:14:16;1.85;;;1.38;;
75005;SDS011;63553;51.814;4.600;2023-02-11T07:16:41;1.50;;;1.40;;
75005;SDS011;63553;51.814;4.600;2023-02-11T07:19:07;2.20;;;1.47;;
75005;SDS011;63553;51.814;4.600;2023-02-11T07:21:32;1.70;;;1.40;;
75005;SDS011;63553;51.814;4.600;2023-02-11T07:23:57;2.55;;;1.40;;
75005;SDS011;63553;51.814;4.600;2023-02-11T07:26:23;2.65;;;1.40;;
75005;SDS011;63553;51.814;4.600;2023-02-11T07:28:49;1.88;;;1.35;;
75005;SDS011;63553;51.814;4.600;2023-02-11T07:31:23;2.67;;;1.15;;
75005;SDS011;63553;51.814;4.600;2023-02-11T07:33:50;1.40;;;1.20;;
75005;SDS011;63553;51.814;4.600;2023-02-11T07:36:17;1.27;;;1.20;;
75005;SDS011;63553;51.814;4.600;2023-02-11T07:38:43;2.00;;;1.30;;
75005;SDS011;63553;51.814;4.600;2023-02-11T07:41:09;2.47;;;1.30;;
75005;SDS011;63553;51.814;4.600;2023-02-11T07:43:37;1.35;;;1.13;;
75005;SDS011;63553;51.814;4.600;2023-02-11T07:46:04;3.58;;;1.55;;
75005;SDS011;63553;51.814;4.600;2023-02-11T07:48:31;1.20;;;1.10;;
75005;SDS011;63553;51.814;4.600;2023-02-11T07:53:31;1.45;;;1.30;;
75005;SDS011;63553;51.814;4.600;2023-02-11T07:55:56;1.30;;;1.20;;
75005;SDS011;63553;51.814;4.600;2023-02-11T07:58:21;1.67;;;1.30;;
75005;SDS011;63553;51.814;4.600;2023-02-11T08:00:47;1.23;;;1.10;;
75005;SDS011;63553;51.814;4.600;2023-02-11T08:03:12;1.20;;;1.10;;
75005;SDS011;63553;51.814;4.600;2023-02-11T08:05:37;1.33;;;1.23;;
75005;SDS011;63553;51.814;4.600;2023-02-11T08:08:03;1.35;;;1.30;;
75005;SDS011;63553;51.814;4.600;2023-02-11T08:10:28;1.70;;;1.15;;
75005;SDS011;63553;51.814;4.600;2023-02-11T08:12:53;1.63;;;1.20;;
75005;SDS011;63553;51.814;4.600;2023-02-11T08:15:19;1.08;;;0.95;;
75005;SDS011;63553;51.814;4.600;2023-02-11T08:17:44;1.27;;;1.00;;
75005;SDS011;63553;51.814;4.600;2023-02-11T08:20:10;1.23;;;1.13;;
75005;SDS011;63553;51.814;4.600;2023-02-11T08:22:35;1.48;;;1.30;;
75005;SDS011;63553;51.814;4.600;2023-02-11T08:25:01;0.90;;;0.90;;
75005;SDS011;63553;51.814;4.600;2023-02-11T08:27:27;1.08;;;0.98;;
75005;SDS011;63553;51.814;4.600;2023-02-11T08:29:53;1.30;;;1.13;;
75005;SDS011;63553;51.814;4.600;2023-02-11T08:32:19;2.17;;;1.30;;
75005;SDS011;63553;51.814;4.600;2023-02-11T08:34:45;1.08;;;1.08;;
75005;SDS011;63553;51.814;4.600;2023-02-11T08:37:10;1.77;;;1.25;;
75005;SDS011;63553;51.814;4.600;2023-02-11T08:39:35;1.57;;;1.10;;
75005;SDS011;63553;51.814;4.600;2023-02-11T08:42:01;1.50;;;1.30;;
75005;SDS011;63553;51.814;4.600;2023-02-11T08:44:26;2.03;;;1.15;;
75005;SDS011;63553;51.814;4.600;2023-02-11T08:46:52;1.30;;;1.20;;
75005;SDS011;63553;51.814;4.600;2023-02-11T08:49:18;0.80;;;0.80;;
75005;SDS011;63553;51.814;4.600;2023-02-11T08:51:44;1.50;;;1.40;;
75005;SDS011;63553;51.814;4.600;2023-02-11T08:54:09;1.15;;;1.10;;
75005;SDS011;63553;51.814;4.600;2023-02-11T08:56:36;1.35;;;1.25;;
75005;SDS011;63553;51.814;4.600;2023-02-11T08:59:02;1.15;;;1.13;;
75005;SDS011;63553;51.814;4.600;2023-02-11T09:01:28;1.10;;;1.00;;
75005;SDS011;63553;51.814;4.600;2023-02-11T09:03:55;1.23;;;1.10;;
75005;SDS011;63553;51.814;4.600;2023-02-11T09:06:21;1.42;;;1.20;;
75005;SDS011;63553;51.814;4.600;2023-02-11T09:08:49;1.00;;;1.00;;
75005;SDS011;63553;51.814;4.600;2023-02-11T09:11:16;1.33;;;1.23;;
75005;SDS011;63553;51.814;4.600;2023-02-11T09:13:44;1.30;;;1.17;;
75005;SDS011;63553;51.814;4.600;2023-02-11T09:16:17;1.60;;;1.40;;
75005;SDS011;63553;51.814;4.600;2023-02-11T09:18:45;1.40;;;1.30;;
75005;SDS011;63553;51.814;4.600;2023-02-11T09:21:11;2.40;;;1.60;;
75005;SDS011;63553;51.814;4.600;2023-02-11T09:23:38;1.30;;;1.20;;
75005;SDS011;63553;51.814;4.600;2023-02-11T09:26:09;1.90;;;1.40;;
75005;SDS011;63553;51.814;4.600;2023-02-11T09:28:37;1.67;;;1.20;;
75005;SDS011;63553;51.814;4.600;2023-02-11T09:31:06;1.95;;;1.38;;
75005;SDS011;63553;51.814;4.600;2023-02-11T09:33:32;1.30;;;1.20;;
75005;SDS011;63553;51.814;4.600;2023-02-11T09:36:02;1.40;;;1.08;;
75005;SDS011;63553;51.814;4.600;2023-02-11T09:38:28;2.13;;;1.50;;
75005;SDS011;63553;51.814;4.600;2023-02-11T09:40:54;1.30;;;1.20;;
75005;SDS011;63553;51.814;4.600;2023-02-11T09:43:20;2.08;;;1.40;;
75005;SDS011;63553;51.814;4.600;2023-02-11T09:45:49;1.20;;;1.20;;
75005;SDS011;63553;51.814;4.600;2023-02-11T09:48:17;1.67;;;1.20;;
75005;SDS011;63553;51.814;4.600;2023-02-11T09:50:49;2.22;;;1.40;;
75005;SDS011;63553;51.814;4.600;2023-02-11T09:53:28;1.63;;;1.42;;
75005;SDS011;63553;51.814;4.600;2023-02-11T09:56:00;1.17;;;1.10;;
75005;SDS011;63553;51.814;4.600;2023-02-11T09:58:34;1.60;;;1.50;;
75005;SDS011;63553;51.814;4.600;2023-02-11T10:06:53;1.40;;;1.30;;
75005;SDS011;63553;51.814;4.600;2023-02-11T10:22:59;2.63;;;1.70;;
75005;SDS011;63553;51.814;4.600;2023-02-11T10:25:34;2.90;;;1.58;;
75005;SDS011;63553;51.814;4.600;2023-02-11T10:28:10;2.17;;;1.95;;
75005;SDS011;63553;51.814;4.600;2023-02-11T10:30:42;1.70;;;1.60;;
75005;SDS011;63553;51.814;4.600;2023-02-11T10:35:39;1.83;;;1.70;;
75005;SDS011;63553;51.814;4.600;2023-02-11T10:38:07;1.58;;;1.48;;
75005;SDS011;63553;51.814;4.600;2023-02-11T10:40:34;1.70;;;1.60;;
75005;SDS011;63553;51.814;4.600;2023-02-11T10:43:00;2.30;;;1.60;;
75005;SDS011;63553;51.814;4.600;2023-02-11T10:45:35;2.78;;;1.83;;
75005;SDS011;63553;51.814;4.600;2023-02-11T10:48:04;3.30;;;1.70;;
75005;SDS011;63553;51.814;4.600;2023-02-11T10:50:50;1.40;;;1.30;;
75005;SDS011;63553;51.814;4.600;2023-02-11T10:53:33;1.88;;;1.70;;
75005;SDS011;63553;51.814;4.600;2023-02-11T10:55:59;1.95;;;1.70;;
75005;SDS011;63553;51.814;4.600;2023-02-11T10:58:40;1.80;;;1.50;;
75005;SDS011;63553;51.814;4.600;2023-02-11T11:01:09;2.95;;;1.60;;
75005;SDS011;63553;51.814;4.600;2023-02-11T11:03:39;2.10;;;1.27;;
75005;SDS011;63553;51.814;4.600;2023-02-11T11:06:11;1.60;;;1.50;;
75005;SDS011;63553;51.814;4.600;2023-02-11T11:11:05;1.88;;;1.38;;
75005;SDS011;63553;51.814;4.600;2023-02-11T11:16:05;1.80;;;1.57;;
75005;SDS011;63553;51.814;4.600;2023-02-11T11:18:37;2.10;;;1.60;;
75005;SDS011;63553;51.814;4.600;2023-02-11T11:23:46;2.60;;;1.60;;
75005;SDS011;63553;51.814;4.600;2023-02-11T11:26:14;2.13;;;1.55;;
75005;SDS011;63553;51.814;4.600;2023-02-11T11:31:21;2.00;;;1.80;;
75005;SDS011;63553;51.814;4.600;2023-02-11T11:33:50;2.50;;;1.63;;
75005;SDS011;63553;51.814;4.600;2023-02-11T11:36:19;2.05;;;1.70;;
75005;SDS011;63553;51.814;4.600;2023-02-11T11:38:56;1.73;;;1.60;;
75005;SDS011;63553;51.814;4.600;2023-02-11T11:41:26;1.80;;;1.70;;
75005;SDS011;63553;51.814;4.600;2023-02-11T11:46:27;2.50;;;1.53;;
75005;SDS011;63553;51.814;4.600;2023-02-11T11:49:06;1.30;;;1.25;;
75005;SDS011;63553;51.814;4.600;2023-02-11T11:51:40;1.60;;;1.50;;
75005;SDS011;63553;51.814;4.600;2023-02-11T11:54:12;1.50;;;1.40;;
75005;SDS011;63553;51.814;4.600;2023-02-11T11:56:49;1.60;;;1.30;;
75005;SDS011;63553;51.814;4.600;2023-02-11T11:59:19;1.90;;;1.35;;
75005;SDS011;63553;51.814;4.600;2023-02-11T12:02:46;1.35;;;1.33;;
75005;SDS011;63553;51.814;4.600;2023-02-11T12:12:37;1.30;;;1.20;;
75005;SDS011;63553;51.814;4.600;2023-02-11T12:15:21;1.23;;;1.20;;
75005;SDS011;63553;51.814;4.600;2023-02-11T12:18:02;1.60;;;1.50;;
75005;SDS011;63553;51.814;4.600;2023-02-11T12:23:38;2.58;;;1.60;;
75005;SDS011;63553;51.814;4.600;2023-02-11T12:26:27;1.58;;;1.48;;
75005;SDS011;63553;51.814;4.600;2023-02-11T12:39:55;2.72;;;1.38;;
75005;SDS011;63553;51.814;4.600;2023-02-11T12:42:45;1.40;;;1.30;;
75005;SDS011;63553;51.814;4.600;2023-02-11T12:51:04;1.13;;;1.13;;
75005;SDS011;63553;51.814;4.600;2023-02-11T12:56:19;1.33;;;1.30;;
75005;SDS011;63553;51.814;4.600;2023-02-11T12:58:51;1.73;;;1.40;;
75005;SDS011;63553;51.814;4.600;2023-02-11T13:03:58;1.52;;;1.42;;
75005;SDS011;63553;51.814;4.600;2023-02-11T13:06:40;2.00;;;1.60;;
75005;SDS011;63553;51.814;4.600;2023-02-11T13:09:12;1.45;;;1.20;;
75005;SDS011;63553;51.814;4.600;2023-02-11T13:11:43;1.50;;;1.40;;
75005;SDS011;63553;51.814;4.600;2023-02-11T13:14:26;1.35;;;1.25;;
75005;SDS011;63553;51.814;4.600;2023-02-11T13:16:59;1.88;;;1.65;;
75005;SDS011;63553;51.814;4.600;2023-02-11T13:19:36;1.60;;;1.50;;
75005;SDS011;63553;51.814;4.600;2023-02-11T13:27:36;1.55;;;1.45;;
75005;SDS011;63553;51.814;4.600;2023-02-11T13:33:04;1.50;;;1.30;;
75005;SDS011;63553;51.814;4.600;2023-02-11T13:38:40;1.20;;;1.20;;
75005;SDS011;63553;51.814;4.600;2023-02-11T13:41:31;1.33;;;1.23;;
75005;SDS011;63553;51.814;4.600;2023-02-11T13:44:44;1.75;;;1.48;;
75005;SDS011;63553;51.814;4.600;2023-02-11T13:46:56;1.42;;;1.33;;
75005;SDS011;63553;51.814;4.600;2023-02-11T13:49:28;1.42;;;1.33;;
75005;SDS011;63553;51.814;4.600;2023-02-11T13:51:57;1.80;;;1.60;;
75005;SDS011;63553;51.814;4.600;2023-02-11T13:54:27;1.77;;;1.60;;
75005;SDS011;63553;51.814;4.600;2023-02-11T13:57:19;1.55;;;1.42;;
75005;SDS011;63553;51.814;4.600;2023-02-11T13:59:46;2.03;;;1.60;;
75005;SDS011;63553;51.814;4.600;2023-02-11T14:02:24;1.60;;;1.40;;
75005;SDS011;63553;51.814;4.600;2023-02-11T14:13:27;2.40;;;1.50;;
75005;SDS011;63553;51.814;4.600;2023-02-11T14:34:50;3.17;;;1.70;;
75005;SDS011;63553;51.814;4.600;2023-02-11T14:42:45;2.42;;;2.15;;
75005;SDS011;63553;51.814;4.600;2023-02-11T14:45:15;1.75;;;1.48;;
75005;SDS011;63553;51.814;4.600;2023-02-11T14:50:18;1.60;;;1.50;;
75005;SDS011;63553;51.814;4.600;2023-02-11T14:52:48;2.08;;;1.67;;
75005;SDS011;63553;51.814;4.600;2023-02-11T15:00:47;4.13;;;1.75;;
75005;SDS011;63553;51.814;4.600;2023-02-11T15:08:50;1.55;;;1.45;;
75005;SDS011;63553;51.814;4.600;2023-02-11T15:11:19;1.58;;;1.48;;
75005;SDS011;63553;51.814;4.600;2023-02-11T15:13:46;1.90;;;1.67;;
75005;SDS011;63553;51.814;4.600;2023-02-11T15:16:14;1.73;;;1.63;;
75005;SDS011;63553;51.814;4.600;2023-02-11T15:18:52;2.35;;;1.63;;
75005;SDS011;63553;51.814;4.600;2023-02-11T15:21:20;1.85;;;1.70;;
75005;SDS011;63553;51.814;4.600;2023-02-11T15:23:54;1.92;;;1.70;;
75005;SDS011;63553;51.814;4.600;2023-02-11T15:26:22;1.70;;;1.52;;
75005;SDS011;63553;51.814;4.600;2023-02-11T15:28:48;1.73;;;1.63;;
75005;SDS011;63553;51.814;4.600;2023-02-11T15:31:16;1.92;;;1.77;;
75005;SDS011;63553;51.814;4.600;2023-02-11T15:33:44;2.28;;;1.70;;
75005;SDS011;63553;51.814;4.600;2023-02-11T15:36:11;2.78;;;2.13;;
75005;SDS011;63553;51.814;4.600;2023-02-11T15:38:38;1.80;;;1.70;;
75005;SDS011;63553;51.814;4.600;2023-02-11T15:41:04;2.45;;;1.80;;
75005;SDS011;63553;51.814;4.600;2023-02-11T15:43:40;1.85;;;1.70;;
75005;SDS011;63553;51.814;4.600;2023-02-11T15:46:09;3.25;;;2.08;;
75005;SDS011;63553;51.814;4.600;2023-02-11T15:48:45;2.40;;;1.65;;
75005;SDS011;63553;51.814;4.600;2023-02-11T15:51:23;1.75;;;1.50;;
75005;SDS011;63553;51.814;4.600;2023-02-11T15:53:57;1.80;;;1.70;;
75005;SDS011;63553;51.814;4.600;2023-02-11T15:56:28;2.45;;;1.85;;
75005;SDS011;63553;51.814;4.600;2023-02-11T15:58:59;2.45;;;1.90;;
75005;SDS011;63553;51.814;4.600;2023-02-11T16:01:37;1.70;;;1.60;;
75005;SDS011;63553;51.814;4.600;2023-02-11T16:04:04;2.42;;;1.80;;
75005;SDS011;63553;51.814;4.600;2023-02-11T16:06:40;2.05;;;1.92;;
75005;SDS011;63553;51.814;4.600;2023-02-11T16:16:47;2.00;;;1.80;;
75005;SDS011;63553;51.814;4.600;2023-02-11T16:19:18;1.85;;;1.60;;
75005;SDS011;63553;51.814;4.600;2023-02-11T16:29:47;1.95;;;1.63;;
75005;SDS011;63553;51.814;4.600;2023-02-11T16:34:41;2.05;;;1.70;;
75005;SDS011;63553;51.814;4.600;2023-02-11T16:37:06;1.60;;;1.50;;
75005;SDS011;63553;51.814;4.600;2023-02-11T16:39:32;1.80;;;1.70;;
75005;SDS011;63553;51.814;4.600;2023-02-11T16:41:57;1.83;;;1.73;;
75005;SDS011;63553;51.814;4.600;2023-02-11T16:44:23;2.40;;;1.90;;
75005;SDS011;63553;51.814;4.600;2023-02-11T16:46:48;2.00;;;1.80;;
75005;SDS011;63553;51.814;4.600;2023-02-11T16:51:50;1.83;;;1.60;;
75005;SDS011;63553;51.814;4.600;2023-02-11T16:54:17;1.92;;;1.73;;
75005;SDS011;63553;51.814;4.600;2023-02-11T16:56:44;1.73;;;1.63;;
75005;SDS011;63553;51.814;4.600;2023-02-11T16:59:09;2.40;;;1.83;;
75005;SDS011;63553;51.814;4.600;2023-02-11T17:01:36;1.83;;;1.65;;
75005;SDS011;63553;51.814;4.600;2023-02-11T17:04:03;1.90;;;1.75;;
75005;SDS011;63553;51.814;4.600;2023-02-11T17:06:29;1.98;;;1.75;;
75005;SDS011;63553;51.814;4.600;2023-02-11T17:08:55;2.10;;;1.65;;
75005;SDS011;63553;51.814;4.600;2023-02-11T17:11:20;2.58;;;1.80;;
75005;SDS011;63553;51.814;4.600;2023-02-11T17:13:46;2.90;;;1.80;;
75005;SDS011;63553;51.814;4.600;2023-02-11T17:16:19;2.17;;;1.67;;
75005;SDS011;63553;51.814;4.600;2023-02-11T17:18:46;1.95;;;1.65;;
75005;SDS011;63553;51.814;4.600;2023-02-11T17:21:13;1.77;;;1.67;;
75005;SDS011;63553;51.814;4.600;2023-02-11T17:23:39;1.80;;;1.63;;
75005;SDS011;63553;51.814;4.600;2023-02-11T17:26:05;2.78;;;1.88;;
75005;SDS011;63553;51.814;4.600;2023-02-11T17:28:31;1.98;;;1.70;;
75005;SDS011;63553;51.814;4.600;2023-02-11T17:30:57;1.58;;;1.48;;
75005;SDS011;63553;51.814;4.600;2023-02-11T17:33:23;1.95;;;1.60;;
75005;SDS011;63553;51.814;4.600;2023-02-11T17:35:48;1.77;;;1.67;;
75005;SDS011;63553;51.814;4.600;2023-02-11T17:38:13;1.80;;;1.50;;
75005;SDS011;63553;51.814;4.600;2023-02-11T17:40:39;1.92;;;1.58;;
75005;SDS011;63553;51.814;4.600;2023-02-11T17:43:04;2.38;;;1.67;;
75005;SDS011;63553;51.814;4.600;2023-02-11T17:45:30;2.33;;;1.90;;
75005;SDS011;63553;51.814;4.600;2023-02-11T17:47:55;1.80;;;1.60;;
75005;SDS011;63553;51.814;4.600;2023-02-11T17:50:20;2.20;;;1.80;;
75005;SDS011;63553;51.814;4.600;2023-02-11T17:52:45;1.53;;;1.43;;
75005;SDS011;63553;51.814;4.600;2023-02-11T17:55:11;3.17;;;1.87;;
75005;SDS011;63553;51.814;4.600;2023-02-11T17:57:36;2.10;;;1.65;;
75005;SDS011;63553;51.814;4.600;2023-02-11T18:00:03;1.88;;;1.60;;
75005;SDS011;63553;51.814;4.600;2023-02-11T18:02:29;1.83;;;1.70;;
75005;SDS011;63553;51.814;4.600;2023-02-11T18:04:55;1.43;;;1.33;;
75005;SDS011;63553;51.814;4.600;2023-02-11T18:07:21;1.67;;;1.58;;
75005;SDS011;63553;51.814;4.600;2023-02-11T18:09:46;1.65;;;1.55;;
75005;SDS011;63553;51.814;4.600;2023-02-11T18:12:12;1.88;;;1.73;;